Time;durP1;ratioP1;P1;durP2;ratioP2;P2;SDS_P1;SDS_P2;PMS_P1;PMS_P2;Temp;Humidity;BMP_temperature;BMP_pressure;BME280_temperature;BME280_humidity;BME280_pressure;Samples;Min_cycle;Max_cycle;Signal;HPM_P1;HPM_P2
2023/08/11 00:00:08;;;;;;;11.98;5.50;;;;;;;18.07;100.00;93127.13;4791353;29;20428;-83
2023/08/11 00:02:38;;;;;;;11.82;5.10;;;;;;;18.06;100.00;93128.25;4791292;29;20083;-83
2023/08/11 00:05:06;;;;;;;12.60;5.55;;;;;;;18.07;100.00;93131.66;4792328;29;20481;-84
2023/08/11 00:07:34;;;;;;;13.68;5.82;;;;;;;18.06;100.00;93135.41;4792402;29;20106;-83
2023/08/11 00:10:07;;;;;;;11.52;5.53;;;;;;;18.06;100.00;93140.72;4792698;29;20399;-83
2023/08/11 00:12:33;;;;;;;12.95;5.45;;;;;;;18.05;100.00;93136.50;4790485;30;20065;-83
2023/08/11 00:15:03;;;;;;;7.53;5.00;;;;;;;18.04;100.00;93137.59;4792376;30;20442;-84
2023/08/11 00:17:28;;;;;;;13.40;5.35;;;;;;;17.99;100.00;93135.09;4792462;29;20039;-83
2023/08/11 00:19:54;;;;;;;12.07;5.40;;;;;;;18.01;100.00;93143.50;4792538;29;20513;-84
2023/08/11 00:22:24;;;;;;;10.55;5.72;;;;;;;17.96;100.00;93147.09;4792163;29;20053;-83
2023/08/11 00:24:51;;;;;;;11.02;6.20;;;;;;;17.94;100.00;93146.66;4792097;29;20510;-84
2023/08/11 00:27:17;;;;;;;9.15;5.70;;;;;;;17.92;100.00;93148.06;4792208;29;20061;-83
2023/08/11 00:29:45;;;;;;;12.50;6.10;;;;;;;17.84;100.00;93144.34;4792140;29;20039;-84
2023/08/11 00:32:11;;;;;;;12.35;6.45;;;;;;;17.85;100.00;93145.88;4792212;30;20081;-84
2023/08/11 00:34:36;;;;;;;12.18;6.32;;;;;;;17.83;100.00;93148.06;4775726;30;20044;-84
2023/08/11 00:37:04;;;;;;;11.30;5.70;;;;;;;17.82;100.00;93151.81;4791099;29;20537;-83
2023/08/11 00:39:53;;;;;;;9.63;5.38;;;;;;;17.82;100.00;93146.53;4791882;29;20070;-84
2023/08/11 00:42:19;;;;;;;11.63;5.40;;;;;;;17.81;100.00;93155.53;4790811;30;20408;-84
2023/08/11 00:44:47;;;;;;;9.68;6.00;;;;;;;17.79;100.00;93153.19;4791120;30;20042;-84
2023/08/11 00:47:15;;;;;;;10.65;6.03;;;;;;;17.79;100.00;93150.56;4790910;29;20495;-83
2023/08/11 00:49:43;;;;;;;14.90;5.93;;;;;;;17.78;100.00;93150.88;4792179;29;20052;-83
2023/08/11 00:52:27;;;;;;;13.63;6.03;;;;;;;17.76;100.00;93158.34;4806257;29;20027;-84
2023/08/11 00:55:01;;;;;;;9.25;6.00;;;;;;;17.74;100.00;93141.97;4792115;29;20050;-83
2023/08/11 00:57:29;;;;;;;12.15;5.72;;;;;;;17.72;100.00;93142.31;4805834;29;20050;-83
2023/08/11 01:00:00;;;;;;;11.05;5.97;;;;;;;17.71;100.00;93140.75;4806274;29;20054;-84
2023/08/11 01:02:31;;;;;;;11.35;5.97;;;;;;;17.69;100.00;93146.34;4805722;29;20043;-84
2023/08/11 01:05:14;;;;;;;12.18;6.03;;;;;;;17.68;100.00;93144.81;4792911;30;20046;-84
2023/08/11 01:07:53;;;;;;;15.50;5.30;;;;;;;17.63;100.00;93141.53;4795574;29;20055;-84
2023/08/11 01:10:57;;;;;;;11.80;6.00;;;;;;;17.63;100.00;93146.81;4795800;29;20042;-84
2023/08/11 01:13:31;;;;;;;13.50;5.93;;;;;;;17.60;100.00;93148.22;4766649;30;20059;-84
2023/08/11 01:16:04;;;;;;;11.80;5.68;;;;;;;17.60;100.00;93145.59;4795041;29;20039;-84
2023/08/11 01:18:36;;;;;;;9.23;6.32;;;;;;;17.61;100.00;93157.75;4795375;29;20452;-84
2023/08/11 01:21:08;;;;;;;14.38;6.50;;;;;;;17.60;100.00;93145.59;4795096;29;20039;-84
2023/08/11 01:23:34;;;;;;;8.90;5.93;;;;;;;17.58;100.00;93152.28;4795686;29;20047;-85
2023/08/11 01:26:01;;;;;;;10.60;6.50;;;;;;;17.56;100.00;93144.69;4795473;29;20035;-84
2023/08/11 01:28:33;;;;;;;12.38;6.80;;;;;;;17.55;100.00;93147.63;4794802;29;20039;-84
2023/08/11 01:31:04;;;;;;;12.00;6.80;;;;;;;17.52;100.00;93156.97;4794913;29;20082;-85
2023/08/11 01:33:31;;;;;;;10.70;6.28;;;;;;;17.50;100.00;93150.44;4807958;29;20507;-84
2023/08/11 01:35:56;;;;;;;11.88;6.03;;;;;;;17.47;100.00;93154.47;4793854;30;20108;-85
2023/08/11 01:38:28;;;;;;;12.23;5.72;;;;;;;17.45;100.00;93152.16;4794291;29;20055;-84
2023/08/11 01:40:57;;;;;;;12.68;6.20;;;;;;;17.41;100.00;93150.44;4808414;29;20568;-84
2023/08/11 01:43:23;;;;;;;9.20;5.88;;;;;;;17.33;100.00;93145.91;4804769;29;20036;-85
2023/08/11 01:45:53;;;;;;;10.10;6.30;;;;;;;17.31;100.00;93153.38;4774911;30;20687;-85
2023/08/11 01:48:20;;;;;;;12.60;6.32;;;;;;;17.23;100.00;93147.00;4775042;30;20464;-83
2023/08/11 01:50:47;;;;;;;10.82;6.63;;;;;;;17.19;100.00;93146.84;4773887;29;20031;-83
2023/08/11 01:53:13;;;;;;;12.70;6.45;;;;;;;17.18;100.00;93150.59;4803651;29;20035;-84
2023/08/11 01:55:40;;;;;;;12.80;6.65;;;;;;;17.12;100.00;93151.81;4792588;30;20046;-84
2023/08/11 01:58:06;;;;;;;10.85;6.80;;;;;;;17.11;100.00;93154.78;4807941;29;20047;-84
2023/08/11 02:00:33;;;;;;;13.98;7.13;;;;;;;17.08;100.00;93153.53;4807960;29;20051;-84
2023/08/11 02:03:02;;;;;;;13.02;7.55;;;;;;;17.06;100.00;93153.06;4792636;29;20077;-84
2023/08/11 02:05:29;;;;;;;13.77;7.32;;;;;;;17.01;100.00;93155.88;4792061;29;20039;-84
2023/08/11 02:07:58;;;;;;;12.65;7.85;;;;;;;17.00;100.00;93154.28;4792653;30;20039;-84
2023/08/11 02:10:25;;;;;;;10.30;7.45;;;;;;;16.99;100.00;93156.16;4793201;29;20053;-84
2023/08/11 02:12:51;;;;;;;10.63;7.38;;;;;;;16.98;100.00;93156.50;4793600;29;20140;-84
2023/08/11 02:15:24;;;;;;;15.82;7.65;;;;;;;16.97;100.00;93157.56;4806316;29;20063;-82
2023/08/11 02:17:53;;;;;;;17.50;7.93;;;;;;;16.95;100.00;93157.09;4806970;29;20066;-84
2023/08/11 02:22:48;;;;;;;11.35;7.63;;;;;;;16.88;100.00;93157.53;4793319;29;20077;-84
2023/08/11 02:25:16;;;;;;;14.23;7.13;;;;;;;16.92;100.00;93158.50;4780165;30;20038;-84
2023/08/11 02:27:42;;;;;;;14.77;7.05;;;;;;;16.89;100.00;93156.47;4792871;29;20043;-84
2023/08/11 02:30:10;;;;;;;12.65;7.07;;;;;;;16.84;100.00;93154.75;4791932;30;20064;-83
2023/08/11 02:32:38;;;;;;;11.63;6.82;;;;;;;16.83;100.00;93150.53;4792513;29;20054;-84
2023/08/11 02:35:05;;;;;;;13.70;7.15;;;;;;;16.81;100.00;93146.66;4793047;29;20035;-82
2023/08/11 02:37:33;;;;;;;12.57;6.95;;;;;;;16.81;100.00;93158.00;4792787;29;20053;-85
2023/08/11 02:39:59;;;;;;;13.32;6.40;;;;;;;16.80;100.00;93151.16;4793049;29;20463;-85
2023/08/11 02:42:25;;;;;;;11.52;6.93;;;;;;;16.79;100.00;93152.22;4791973;30;20070;-84
2023/08/11 02:44:51;;;;;;;10.70;6.50;;;;;;;16.76;100.00;93150.19;4792793;29;20391;-84
2023/08/11 02:47:17;;;;;;;12.80;7.25;;;;;;;16.75;100.00;93147.84;4793034;29;20043;-84
2023/08/11 02:49:43;;;;;;;11.40;6.75;;;;;;;16.72;100.00;93154.53;4793120;29;20039;-84
2023/08/11 02:52:10;;;;;;;9.82;6.57;;;;;;;16.72;100.00;93151.88;4793195;30;20043;-83
2023/08/11 02:54:36;;;;;;;17.42;7.38;;;;;;;16.72;100.00;93149.25;4791968;29;20486;-84
2023/08/11 02:57:08;;;;;;;13.32;7.15;;;;;;;16.70;100.00;93148.75;4776075;30;20054;-85
2023/08/11 02:59:33;;;;;;;11.82;6.85;;;;;;;16.71;100.00;93160.91;4804092;29;20050;-84
2023/08/11 03:01:59;;;;;;;13.50;7.47;;;;;;;16.70;100.00;93151.41;4792575;30;20486;-84
2023/08/11 03:04:24;;;;;;;10.30;6.70;;;;;;;16.68;100.00;93147.53;4792889;29;20102;-84
2023/08/11 03:06:50;;;;;;;10.10;6.68;;;;;;;16.68;100.00;93148.28;4792147;29;20406;-84
2023/08/11 03:09:16;;;;;;;13.30;6.63;;;;;;;16.68;100.00;93156.22;4776286;30;20039;-84
2023/08/11 03:11:42;;;;;;;12.95;7.63;;;;;;;16.67;100.00;93157.31;4792637;29;20035;-85
2023/08/11 03:14:12;;;;;;;9.32;6.90;;;;;;;16.70;100.00;93151.41;4806183;29;20067;-85
2023/08/11 03:16:38;;;;;;;11.93;7.68;;;;;;;16.71;100.00;93152.97;4792374;29;20380;-84
2023/08/11 03:19:04;;;;;;;14.43;7.40;;;;;;;16.77;100.00;93154.38;4776492;30;20088;-85
2023/08/11 03:21:33;;;;;;;14.13;7.60;;;;;;;16.77;100.00;93150.97;4791469;30;20104;-84
2023/08/11 03:24:00;;;;;;;14.93;7.35;;;;;;;16.78;100.00;93150.66;4776717;30;20558;-84
2023/08/11 03:26:29;;;;;;;13.13;7.53;;;;;;;16.78;100.00;93158.59;4790029;29;20107;-84
2023/08/11 03:28:56;;;;;;;14.18;7.03;;;;;;;16.75;100.00;93153.94;4776185;30;20701;-83
2023/08/11 03:31:22;;;;;;;11.95;7.30;;;;;;;16.72;100.00;93154.53;4791768;29;20519;-84
2023/08/11 03:33:51;;;;;;;11.55;6.97;;;;;;;16.69;100.00;93160.44;4776680;30;20513;-84
2023/08/11 03:36:17;;;;;;;11.77;7.65;;;;;;;16.63;100.00;93151.84;4806028;29;20410;-84
2023/08/11 03:38:44;;;;;;;10.07;6.63;;;;;;;16.59;100.00;93168.63;4805750;29;20046;-84
2023/08/11 03:41:10;;;;;;;10.82;7.35;;;;;;;16.56;100.00;93169.25;4790695;30;20487;-84
2023/08/11 03:43:36;;;;;;;9.50;6.13;;;;;;;16.52;100.00;93160.38;4806137;29;20045;-84
2023/08/11 03:46:02;;;;;;;9.15;6.60;;;;;;;16.46;100.00;93165.03;4792517;29;20039;-84
2023/08/11 03:48:28;;;;;;;9.65;6.43;;;;;;;16.43;100.00;93163.75;4791874;30;20035;-84
2023/08/11 03:51:00;;;;;;;10.63;6.70;;;;;;;16.40;100.00;93159.09;4806143;29;20043;-83
2023/08/11 03:53:25;;;;;;;10.25;6.70;;;;;;;16.39;100.00;93168.13;4791002;29;20039;-84
2023/08/11 03:55:52;;;;;;;9.48;6.82;;;;;;;16.36;100.00;93162.66;4805512;29;20092;-83
2023/08/11 03:58:25;;;;;;;11.57;6.57;;;;;;;16.37;100.00;93167.66;4791816;29;20050;-84
2023/08/11 04:00:54;;;;;;;11.07;6.35;;;;;;;16.34;100.00;93170.88;4775935;30;20047;-84
2023/08/11 04:03:22;;;;;;;9.57;6.57;;;;;;;16.32;100.00;93165.13;4804553;29;20043;-84
2023/08/11 04:05:50;;;;;;;10.02;6.65;;;;;;;16.30;100.00;93164.66;4788727;29;20048;-84
2023/08/11 04:08:19;;;;;;;9.65;6.90;;;;;;;16.28;100.00;93161.56;4787097;30;20104;-84
2023/08/11 04:10:45;;;;;;;13.07;6.85;;;;;;;16.27;100.00;93170.53;4789722;30;20043;-84
2023/08/11 04:13:16;;;;;;;10.65;7.25;;;;;;;16.25;100.00;93159.50;4791024;29;20127;-84
2023/08/11 04:15:42;;;;;;;11.32;7.10;;;;;;;16.26;100.00;93163.72;4776276;30;20062;-83
2023/08/11 04:18:10;;;;;;;13.73;7.03;;;;;;;16.26;100.00;93161.06;4804959;29;20039;-84
2023/08/11 04:20:36;;;;;;;11.38;7.00;;;;;;;16.22;100.00;93165.41;4805497;29;20058;-84
2023/08/11 04:23:03;;;;;;;10.38;7.47;;;;;;;16.18;100.00;93161.81;4790951;30;20035;-84
2023/08/11 04:25:31;;;;;;;14.68;7.95;;;;;;;16.14;100.00;93166.13;4790295;30;20043;-84
2023/08/11 04:28:00;;;;;;;13.90;7.10;;;;;;;16.15;100.00;93173.75;4790877;29;20039;-84
2023/08/11 04:30:26;;;;;;;10.07;7.10;;;;;;;16.17;100.00;93168.94;4789376;30;20430;-84
2023/08/11 04:32:53;;;;;;;15.10;7.72;;;;;;;16.20;100.00;93170.97;4775713;30;20050;-84
2023/08/11 04:35:18;;;;;;;11.77;8.05;;;;;;;16.20;100.00;93170.97;4790219;30;20044;-85
2023/08/11 04:37:45;;;;;;;12.75;7.93;;;;;;;16.18;100.00;93167.09;4790414;29;20039;-84
2023/08/11 04:40:15;;;;;;;14.23;8.30;;;;;;;16.17;100.00;93174.22;4789467;30;20044;-84
2023/08/11 04:42:46;;;;;;;12.38;8.13;;;;;;;16.16;100.00;93175.31;4789915;30;20043;-84
2023/08/11 04:45:19;;;;;;;12.32;7.93;;;;;;;16.16;100.00;93175.31;4806032;29;20042;-83
2023/08/11 04:47:45;;;;;;;13.20;8.23;;;;;;;16.18;100.00;93173.13;4775426;30;20108;-84
2023/08/11 04:50:15;;;;;;;11.90;7.82;;;;;;;16.22;100.00;93176.75;4789247;30;20118;-84
2023/08/11 04:52:41;;;;;;;11.18;7.55;;;;;;;16.25;100.00;93178.00;4804565;29;20108;-84
2023/08/11 04:55:17;;;;;;;11.70;7.32;;;;;;;16.32;100.00;93173.03;4790903;29;20062;-84
2023/08/11 04:57:43;;;;;;;11.57;7.45;;;;;;;16.33;100.00;93168.56;4775442;30;20046;-83
2023/08/11 05:00:16;;;;;;;13.60;8.73;;;;;;;16.39;100.00;93183.16;4788381;30;20035;-84
2023/08/11 05:02:44;;;;;;;12.25;8.43;;;;;;;16.45;100.00;93188.03;4790610;29;20126;-83
2023/08/11 05:05:19;;;;;;;17.70;7.78;;;;;;;16.55;100.00;93183.53;4789357;30;20031;-84
2023/08/11 05:07:50;;;;;;;11.85;7.28;;;;;;;16.61;100.00;93184.97;4791213;29;20126;-84
2023/08/11 05:10:22;;;;;;;15.57;8.20;;;;;;;16.65;100.00;93191.97;4791416;29;20470;-84
2023/08/11 05:12:49;;;;;;;14.15;8.38;;;;;;;16.68;100.00;93185.28;4759436;30;20096;-83
2023/08/11 05:15:15;;;;;;;14.40;7.60;;;;;;;16.75;100.00;93184.84;4804781;29;20047;-84
2023/08/11 05:17:50;;;;;;;14.30;8.00;;;;;;;16.84;100.00;93194.41;4791092;29;20043;-84
2023/08/11 05:20:16;;;;;;;14.35;8.38;;;;;;;16.92;100.00;93198.16;4789682;30;20521;-84
2023/08/11 05:22:47;;;;;;;10.35;8.13;;;;;;;17.01;100.00;93203.47;4791625;29;20510;-84
2023/08/11 05:25:13;;;;;;;12.68;8.27;;;;;;;17.11;100.00;93199.75;4791446;29;20204;-83
2023/08/11 05:27:39;;;;;;;12.13;7.72;;;;;;;17.20;100.00;93206.63;4791140;29;20071;-83
2023/08/11 05:30:07;;;;;;;13.93;7.43;;;;;;;17.31;100.00;93206.31;4790325;29;20039;-83
2023/08/11 05:32:33;;;;;;;15.15;7.68;;;;;;;17.41;100.00;93206.00;4790903;29;20043;-84
2023/08/11 05:34:58;;;;;;;14.02;7.70;;;;;;;17.52;100.00;93212.56;4790976;30;20134;-84
2023/08/11 05:37:24;;;;;;;11.65;7.22;;;;;;;17.64;100.00;93209.28;4789622;29;20077;-84
2023/08/11 05:39:56;;;;;;;14.45;6.88;;;;;;;17.76;100.00;93214.72;4790754;29;20051;-85
2023/08/11 05:42:27;;;;;;;14.57;6.72;;;;;;;17.95;100.00;93222.38;4791591;29;20067;-84
2023/08/11 05:44:57;;;;;;;16.35;7.13;;;;;;;18.12;100.00;93223.44;4790552;29;20114;-85
2023/08/11 05:47:30;;;;;;;12.73;7.55;;;;;;;18.25;100.00;93227.78;4791045;29;20090;-84
2023/08/11 05:49:57;;;;;;;12.48;6.70;;;;;;;18.35;100.00;93222.16;4791665;29;20047;-84
2023/08/11 05:52:23;;;;;;;10.23;6.38;;;;;;;18.45;100.00;93224.44;4794032;29;20047;-85
2023/08/11 05:54:55;;;;;;;11.20;5.80;;;;;;;18.64;100.00;93217.97;4778715;30;20084;-84
2023/08/11 05:57:21;;;;;;;9.38;5.80;;;;;;;18.83;100.00;93225.59;4794937;29;20058;-85
2023/08/11 05:59:47;;;;;;;10.65;6.30;;;;;;;18.96;100.00;93226.44;4792968;30;20031;-85
2023/08/11 06:02:12;;;;;;;10.10;5.95;;;;;;;19.03;100.00;93221.44;4794168;30;20382;-85
2023/08/11 06:04:44;;;;;;;10.13;6.40;;;;;;;19.23;100.00;93228.66;4793201;30;20160;-85
2023/08/11 06:07:09;;;;;;;12.15;6.55;;;;;;;19.26;100.00;93227.22;4793003;30;20103;-84
2023/08/11 06:09:55;;;;;;;9.07;6.10;;;;;;;19.50;100.00;93234.59;4793344;30;20044;-85
2023/08/11 06:12:24;;;;;;;10.43;6.57;;;;;;;19.61;100.00;93230.44;4807102;29;20549;-85
2023/08/11 06:14:53;;;;;;;12.77;6.00;;;;;;;20.12;100.00;93228.44;4794489;29;20044;-85
2023/08/11 06:17:20;;;;;;;11.10;5.15;;;;;;;20.71;100.00;93237.25;4808479;29;20040;-85
2023/08/11 06:19:54;;;;;;;12.45;5.63;;;;;;;21.15;100.00;93232.19;4807527;29;20262;-85
2023/08/11 06:22:23;;;;;;;8.10;4.95;;;;;;;21.61;100.00;93233.56;4793669;30;20073;-85
2023/08/11 06:24:54;;;;;;;7.90;5.18;;;;;;;22.08;100.00;93232.22;4793736;29;20039;-85
2023/08/11 06:27:22;;;;;;;15.60;7.47;;;;;;;22.23;100.00;93226.19;4794090;29;20039;-85
2023/08/11 06:30:11;;;;;;;10.43;6.50;;;;;;;22.24;100.00;93235.72;4793353;29;20043;-85
2023/08/11 06:32:37;;;;;;;12.88;5.75;;;;;;;22.56;100.00;93232.34;4794047;29;20103;-85
2023/08/11 06:35:07;;;;;;;10.60;4.93;;;;;;;22.85;100.00;93234.59;4793011;30;20065;-85
2023/08/11 06:38:11;;;;;;;6.38;3.92;;;;;;;22.99;100.00;93249.41;4792800;30;20066;-85
2023/08/11 06:40:38;;;;;;;10.32;4.97;;;;;;;23.03;100.00;93259.09;4793852;29;20043;-85
2023/08/11 06:43:31;;;;;;;10.68;5.30;;;;;;;22.51;100.00;93252.03;4793578;29;20046;-85
2023/08/11 06:45:56;;;;;;;12.23;6.93;;;;;;;22.73;100.00;93255.25;4793765;29;20035;-85
2023/08/11 06:48:33;;;;;;;11.77;6.80;;;;;;;23.34;100.00;93264.75;4806968;29;20096;-85
2023/08/11 06:51:00;;;;;;;10.85;7.82;;;;;;;23.56;100.00;93266.00;4807673;29;20051;-85
2023/08/11 06:53:26;;;;;;;14.77;7.95;;;;;;;23.66;100.00;93268.91;4792668;30;20031;-85
2023/08/11 06:55:52;;;;;;;11.57;7.57;;;;;;;23.28;100.00;93266.88;4806760;29;20047;-85
2023/08/11 06:58:18;;;;;;;10.45;7.45;;;;;;;23.25;100.00;93272.94;4793875;29;20135;-85
2023/08/11 07:00:51;;;;;;;10.40;6.82;;;;;;;23.13;100.00;93267.69;4792338;29;20071;-85
2023/08/11 07:03:16;;;;;;;15.68;7.07;;;;;;;23.15;100.00;93274.25;4775182;30;20095;-85
2023/08/11 07:05:42;;;;;;;12.57;7.22;;;;;;;22.98;100.00;93274.56;4789609;30;20091;-85
2023/08/11 07:08:09;;;;;;;10.10;6.63;;;;;;;22.85;100.00;93266.63;4789534;30;20499;-85
2023/08/11 07:10:50;;;;;;;11.77;6.32;;;;;;;23.13;100.00;93273.03;4775796;30;20044;-85
2023/08/11 07:13:16;;;;;;;11.80;5.90;;;;;;;23.26;100.00;93275.25;4773479;30;20163;-83
2023/08/11 07:15:48;;;;;;;10.82;6.07;;;;;;;22.68;100.00;93271.53;4775929;30;20522;-85
2023/08/11 07:18:20;;;;;;;8.60;5.05;;;;;;;23.04;100.00;93278.56;4775914;30;20044;-84
2023/08/11 07:20:51;;;;;;;;;;;;;;;23.30;100.00;93285.25;4774784;30;20051;-85
2023/08/11 07:23:18;;;;;;;13.50;5.17;;;;;;;23.31;100.00;93284.91;4775247;29;19922;-84
2023/08/11 07:25:45;;;;;;;16.20;4.97;;;;;;;22.86;100.00;93284.19;4775759;30;20032;-84
2023/08/11 07:28:23;;;;;;;11.70;4.75;;;;;;;22.36;100.00;93287.44;4776028;30;20048;-84
2023/08/11 07:30:54;;;;;;;9.13;4.93;;;;;;;21.93;100.00;93283.56;4789120;30;20039;-83
2023/08/11 07:33:40;;;;;;;9.38;5.72;;;;;;;21.63;100.00;93294.53;4775412;30;20116;-84
2023/08/11 07:36:26;;;;;;;8.63;5.10;;;;;;;21.63;100.00;93294.53;4775418;30;20056;-84
2023/08/11 07:38:56;;;;;;;10.43;5.55;;;;;;;21.35;100.00;93289.88;4773879;30;20043;-84
2023/08/11 07:41:24;;;;;;;8.70;5.30;;;;;;;21.20;100.00;93298.50;4789998;30;20512;-84
2023/08/11 07:43:50;;;;;;;13.63;5.32;;;;;;;21.25;100.00;93295.63;4807556;29;20043;-85
2023/08/11 07:46:16;;;;;;;10.30;5.70;;;;;;;21.42;100.00;93284.78;4801099;29;20043;-84
2023/08/11 07:48:42;;;;;;;11.43;6.03;;;;;;;21.65;100.00;93292.31;4775991;30;20051;-85
2023/08/11 07:51:10;;;;;;;10.40;5.65;;;;;;;22.01;100.00;93296.00;4775518;30;20038;-84
2023/08/11 07:53:38;;;;;;;12.50;5.72;;;;;;;21.87;100.00;93298.28;4775147;30;20047;-85
2023/08/11 07:56:13;;;;;;;9.52;6.00;;;;;;;21.83;100.00;93293.59;4774844;30;20058;-85
2023/08/11 07:58:40;;;;;;;10.55;5.47;;;;;;;21.82;100.00;93294.72;4775276;30;20031;-85
2023/08/11 08:01:12;;;;;;;10.68;5.40;;;;;;;22.09;100.00;93300.44;4774814;30;20127;-84
2023/08/11 08:03:40;;;;;;;8.75;4.60;;;;;;;22.19;100.00;93309.84;4787301;30;20490;-84
2023/08/11 08:06:07;;;;;;;7.70;5.28;;;;;;;22.18;100.00;93309.06;4792627;29;20074;-84
2023/08/11 08:08:35;;;;;;;13.48;6.25;;;;;;;22.15;100.00;93303.63;4791595;29;20126;-84
2023/08/11 08:11:09;;;;;;;13.50;6.53;;;;;;;22.34;100.00;93301.13;4791887;30;20496;-84
2023/08/11 08:13:34;;;;;;;10.55;6.15;;;;;;;22.52;100.00;93309.63;4792266;29;20466;-84
2023/08/11 08:16:31;;;;;;;11.60;6.57;;;;;;;22.62;100.00;93309.13;4792816;30;20052;-84
2023/08/11 08:18:57;;;;;;;10.40;6.07;;;;;;;22.74;100.00;93313.63;4792365;29;20514;-84
2023/08/11 08:21:24;;;;;;;9.65;5.50;;;;;;;22.68;100.00;93315.00;4792630;29;20049;-84
2023/08/11 08:24:00;;;;;;;13.52;5.75;;;;;;;22.32;100.00;93310.59;4792867;30;20066;-84
2023/08/11 08:26:27;;;;;;;13.13;5.72;;;;;;;21.98;100.00;93320.69;4801970;29;20042;-84
2023/08/11 08:28:52;;;;;;;10.35;5.70;;;;;;;22.20;100.00;93322.03;4793221;29;20096;-84
2023/08/11 08:31:32;;;;;;;11.80;6.10;;;;;;;22.17;100.00;93320.81;4791333;30;20043;-84
2023/08/11 08:34:01;;;;;;;9.10;5.20;;;;;;;22.22;100.00;93309.97;4792731;29;20050;-83
2023/08/11 08:36:32;;;;;;;10.25;5.78;;;;;;;21.86;100.00;93318.78;4809934;29;20050;-84
2023/08/11 08:39:03;;;;;;;8.88;5.15;;;;;;;21.94;100.00;93314.47;4810588;29;20057;-83
2023/08/11 08:41:38;;;;;;;8.05;5.05;;;;;;;21.92;100.00;93319.34;4792937;29;20039;-83
2023/08/11 08:44:13;;;;;;;24.30;7.65;;;;;;;21.53;100.00;93316.31;4791944;29;20066;-84
2023/08/11 08:46:53;;;;;;;11.63;5.60;;;;;;;21.55;100.00;93317.50;4792247;29;20487;-84
2023/08/11 08:49:26;;;;;;;10.82;5.22;;;;;;;21.40;100.00;93318.94;4792812;29;20115;-84
2023/08/11 08:51:54;;;;;;;10.35;5.50;;;;;;;21.51;100.00;93323.84;4792737;29;20126;-83
2023/08/11 08:54:40;;;;;;;10.00;6.32;;;;;;;21.63;100.00;93321.94;4793243;29;20402;-83
2023/08/11 08:57:25;;;;;;;13.13;6.13;;;;;;;22.06;100.00;93314.41;4792486;29;20127;-83
2023/08/11 08:59:55;;;;;;;13.43;5.35;;;;;;;21.92;100.00;93312.13;4792585;29;20043;-84
2023/08/11 09:02:27;;;;;;;9.93;4.97;;;;;;;21.78;100.00;93315.16;4776624;30;20051;-84
2023/08/11 09:04:58;;;;;;;7.65;4.93;;;;;;;21.73;100.00;93320.72;4792625;29;20039;-84
2023/08/11 09:07:27;;;;;;;10.07;4.93;;;;;;;21.76;100.00;93320.03;4792069;29;20066;-84
2023/08/11 09:09:54;;;;;;;12.57;5.00;;;;;;;21.53;100.00;93308.31;4791713;30;20032;-84
2023/08/11 09:12:19;;;;;;;7.78;4.45;;;;;;;21.85;100.00;93311.16;4776424;30;20084;-84
2023/08/11 09:14:55;;;;;;;7.53;4.80;;;;;;;21.90;100.00;93308.25;4792947;29;20556;-84
2023/08/11 09:17:21;;;;;;;8.10;4.53;;;;;;;21.83;100.00;93309.59;4792524;29;20055;-84
2023/08/11 09:19:52;;;;;;;10.32;5.20;;;;;;;21.70;100.00;93310.72;4792401;29;20089;-84
2023/08/11 09:22:24;;;;;;;9.35;3.97;;;;;;;21.82;100.00;93313.38;4793024;30;20051;-84
2023/08/11 09:24:50;;;;;;;9.07;5.30;;;;;;;22.07;100.00;93307.22;4792749;29;20039;-84
2023/08/11 09:27:15;;;;;;;8.80;4.63;;;;;;;21.96;100.00;93309.56;4795959;29;20380;-84
2023/08/11 09:29:41;;;;;;;8.18;5.18;;;;;;;21.69;100.00;93308.41;4795626;29;20392;-84
2023/08/11 09:32:12;;;;;;;8.98;4.57;;;;;;;21.59;100.00;93309.63;4796046;29;20039;-84
2023/08/11 09:34:39;;;;;;;8.75;4.50;;;;;;;22.18;100.00;93310.97;4795730;29;20101;-84
2023/08/11 09:37:06;;;;;;;7.13;4.75;;;;;;;22.32;100.00;93310.59;4779166;30;20024;-83
2023/08/11 09:40:05;;;;;;;8.65;4.50;;;;;;;22.63;100.00;93305.34;4794479;30;20043;-82
2023/08/11 09:42:46;;;;;;;6.50;4.30;;;;;;;22.86;100.00;93304.78;4796499;29;20083;-84
2023/08/11 09:45:11;;;;;;;10.07;4.75;;;;;;;22.89;100.00;93304.09;4795717;29;20459;-83
2023/08/11 09:47:44;;;;;;;8.07;4.85;;;;;;;22.67;100.00;93305.41;4809349;29;20039;-84
2023/08/11 09:50:14;;;;;;;9.48;5.20;;;;;;;22.49;100.00;93310.28;4793825;29;20057;-83
2023/08/11 09:52:50;;;;;;;11.07;6.20;;;;;;;22.41;100.00;93311.22;4794956;29;20027;-84
2023/08/11 09:55:32;;;;;;;12.70;5.55;;;;;;;22.35;100.00;93307.25;4795037;29;20049;-82
2023/08/11 09:58:01;;;;;;;19.52;5.40;;;;;;;22.71;100.00;93302.84;4795124;29;20387;-84
2023/08/11 10:00:30;;;;;;;10.77;4.95;;;;;;;23.04;100.00;93305.25;4792757;30;20063;-84
2023/08/11 10:03:06;;;;;;;11.77;4.68;;;;;;;23.25;100.00;93305.75;4793036;30;20422;-84
2023/08/11 10:05:43;;;;;;;9.60;4.75;;;;;;;23.45;100.00;93309.28;4794829;29;20046;-84
2023/08/11 10:08:19;;;;;;;9.77;4.80;;;;;;;23.44;100.00;93317.63;4794312;29;20508;-84
2023/08/11 10:10:45;;;;;;;8.95;4.85;;;;;;;23.38;100.00;93313.69;4792601;30;20089;-85
2023/08/11 10:13:26;;;;;;;9.35;5.50;;;;;;;22.91;100.00;93315.19;4791538;30;20514;-85
2023/08/11 10:15:56;;;;;;;11.50;4.97;;;;;;;22.86;100.00;93307.44;4794373;29;20100;-84
2023/08/11 10:18:23;;;;;;;8.98;4.63;;;;;;;22.92;100.00;93308.75;4778561;30;20079;-84
2023/08/11 10:20:56;;;;;;;8.18;5.03;;;;;;;22.81;100.00;93313.03;4793939;29;20035;-84
2023/08/11 10:23:28;;;;;;;8.45;5.00;;;;;;;22.79;100.00;93313.38;4793960;30;20043;-84
2023/08/11 10:26:09;;;;;;;9.45;4.85;;;;;;;22.91;100.00;93320.53;4794415;29;20063;-84
2023/08/11 10:28:37;;;;;;;12.23;5.60;;;;;;;22.79;100.00;93323.28;4794346;29;20366;-84
2023/08/11 10:31:04;;;;;;;11.05;5.07;;;;;;;22.85;100.00;93313.88;4793569;30;20031;-84
2023/08/11 10:33:31;;;;;;;9.20;4.95;;;;;;;22.93;100.00;93315.63;4794337;30;20044;-84
2023/08/11 10:36:05;;;;;;;7.82;4.93;;;;;;;23.01;100.00;93317.41;4793160;29;20062;-84
2023/08/11 10:38:35;;;;;;;8.00;4.60;;;;;;;22.96;100.00;93314.94;4795145;29;20040;-84
2023/08/11 10:41:09;;;;;;;10.10;4.68;;;;;;;22.98;100.00;93328.72;4794100;30;20047;-84
2023/08/11 10:43:41;;;;;;;11.15;5.30;;;;;;;22.71;100.00;93316.19;4779303;30;20423;-84
2023/08/11 10:46:35;;;;;;;9.55;4.95;;;;;;;22.62;100.00;93322.47;4794941;29;20167;-84
2023/08/11 10:49:31;;;;;;;7.72;4.70;;;;;;;22.86;100.00;93315.44;4793832;29;20469;-84
2023/08/11 10:51:58;;;;;;;9.25;4.80;;;;;;;;;;4795067;29;20110;-84
2023/08/11 10:54:33;;;;;;;7.85;4.88;;;;;;;23.18;100.00;93312.84;4794646;30;20023;-84
2023/08/11 10:57:24;;;;;;;8.43;5.03;;;;;;;23.00;100.00;93315.84;4794855;29;20482;-84
2023/08/11 10:59:56;;;;;;;6.40;4.40;;;;;;;22.99;100.00;93314.28;4794564;29;20046;-84
2023/08/11 11:02:23;;;;;;;7.90;4.43;;;;;;;22.91;100.00;93317.88;4795502;30;20297;-84
2023/08/11 11:05:09;;;;;;;8.60;5.05;;;;;;;22.68;100.00;93314.22;4794238;29;20495;-84
2023/08/11 11:07:51;;;;;;;7.32;4.63;;;;;;;22.71;100.00;93308.19;4794566;29;20555;-84
2023/08/11 11:10:28;;;;;;;5.60;3.83;;;;;;;22.62;100.00;93309.13;4794584;30;20042;-84
2023/08/11 11:12:55;;;;;;;7.55;5.05;;;;;;;22.85;100.00;93308.53;4794910;29;20320;-84
2023/08/11 11:15:21;;;;;;;8.60;5.13;;;;;;;22.74;100.00;93299.50;4794374;29;20102;-84
2023/08/11 11:17:55;;;;;;;13.23;4.90;;;;;;;22.56;100.00;93297.16;4794642;29;20051;-84
2023/08/11 11:20:27;;;;;;;8.02;4.93;;;;;;;23.05;100.00;93291.53;4795209;29;20403;-84
2023/08/11 11:23:10;;;;;;;8.15;4.40;;;;;;;23.12;100.00;93290.94;4794300;30;20456;-84
2023/08/11 11:26:10;;;;;;;7.00;4.60;;;;;;;23.41;100.00;93291.63;4794427;30;20047;-84
2023/08/11 11:28:40;;;;;;;6.20;4.47;;;;;;;23.59;100.00;93292.03;4794878;29;20099;-84
2023/08/11 11:31:11;;;;;;;6.93;4.43;;;;;;;23.51;100.00;93290.28;4807770;29;20034;-84
2023/08/11 11:33:38;;;;;;;6.70;4.43;;;;;;;23.48;100.00;93289.09;4792579;30;20126;-84
2023/08/11 11:36:19;;;;;;;6.10;4.22;;;;;;;23.61;100.00;93295.13;4794229;29;20042;-84